Flight Track Log - Related Links

Times and Time Zones

All times are in EDT time to prevent confusion due to time zone crossing. See the EJM916 flight status page for this flight to view local times or setup timezone preferences in your user account.


Time Position Orientation Groundspeed Altitude Reporting Facility
EDT Latitude Longitude Course Direction KTS MPH feet Rate Location/Type
Sun 10:51:00 AM 40.1041 -86.1064 143° Southeast  Level Estimated
Sun 10:52:00 AM 40.0455 -86.0508 144° Southeast  Level Estimated
Sun 10:53:00 AM 39.9868 -85.9954 144° Southeast  Level Estimated
Sun 10:54:00 AM 39.9281 -85.9400 144° Southeast  Level Estimated
Sun 10:55:00 AM 39.8693 -85.8848 144° Southeast  Level Estimated
Sun 10:56:00 AM 39.8105 -85.8296 144° Southeast  Level Estimated
Sun 10:57:00 AM 39.7517 -85.7746 144° Southeast  Level Estimated
Sun 10:58:00 AM 39.6929 -85.7196 144° Southeast  Level Estimated
Sun 10:59:00 AM 39.6340 -85.6647 144° Southeast  Level Estimated
Sun 11:00:00 AM 39.5751 -85.6099 144° Southeast  Level Estimated
Sun 11:01:00 AM 39.5162 -85.5552 144° Southeast  Level Estimated
Sun 11:02:00 AM 39.4573 -85.5006 144° Southeast  Level Estimated
Sun 11:03:00 AM 39.3983 -85.4461 144° Southeast  Level Estimated
Sun 11:04:00 AM 39.3394 -85.3917 144° Southeast  Level Estimated
Sun 11:05:00 AM 39.2804 -85.3373 145° Southeast  Level Estimated
Sun 11:06:00 AM 39.2213 -85.2831 145° Southeast  Level Estimated
Sun 11:07:00 AM 39.1623 -85.2290 145° Southeast  Level Estimated
Sun 11:08:00 AM 39.1032 -85.1749 145° Southeast  Level Estimated
Sun 11:09:00 AM 39.0441 -85.1210 145° Southeast  Level Estimated
Sun 11:10:00 AM 38.9850 -85.0671 145° Southeast  Level Estimated
Sun 11:11:00 AM 38.9258 -85.0133 145° Southeast  Level Estimated
Sun 11:12:00 AM 38.8666 -84.9596 145° Southeast  Level Estimated
Sun 11:13:00 AM 38.8074 -84.9060 145° Southeast  Level Estimated
Sun 11:14:00 AM 38.7482 -84.8525 145° Southeast  Level Estimated
Sun 11:15:00 AM 38.6889 -84.7991 145° Southeast  Level Estimated
Sun 11:16:00 AM 38.6296 -84.7457 145° Southeast  Level Estimated
Sun 11:17:00 AM 38.5703 -84.6925 145° Southeast  Level Estimated
Sun 11:18:00 AM 38.5110 -84.6393 145° Southeast  Level Estimated
Sun 11:19:00 AM 38.4516 -84.5863 145° Southeast  Level Estimated
Sun 11:20:00 AM 38.3923 -84.5333 145° Southeast  Level Estimated
Sun 11:21:00 AM 38.3329 -84.4804 145° Southeast  Level Estimated
Sun 11:22:00 AM 38.2807 -84.4340 145° Southeast  Level Estimated
Sun 11:23:00 AM 38.2286 -84.3878 145° Southeast  Level Estimated
Sun 11:24:00 AM 38.1764 -84.3416 145° Southeast  Level Estimated
Sun 11:25:00 AM 38.1243 -84.2955 145° Southeast  Level Estimated
Sun 11:26:00 AM 38.0721 -84.2494 145° Southeast  Level Estimated
Sun 11:27:00 AM 38.0199 -84.2034 145° Southeast  Level Estimated
Sun 11:28:00 AM 37.9677 -84.1575 145° Southeast  Level Estimated
Sun 11:29:00 AM 37.9154 -84.1116 145° Southeast  Level Estimated
Sun 11:30:00 AM 37.8632 -84.0658 145° Southeast  Level Estimated
Sun 11:31:00 AM 37.8109 -84.0201 145° Southeast  Level Estimated
Sun 11:32:00 AM 37.7586 -83.9744 145° Southeast  Level Estimated
Sun 11:33:00 AM 37.7062 -83.9288 145° Southeast  Level Estimated

Login

Don't have an account? Register now (free) for customized features, flight alerts, and more!